createdAt,value
2022-08-17T00:02:26.424Z,80.16
2022-08-17T00:04:55.058Z,80.28
2022-08-17T00:07:22.615Z,80.41
2022-08-17T00:09:49.538Z,80.46
2022-08-17T00:12:41.415Z,80.22
2022-08-17T00:15:05.857Z,79.84
2022-08-17T00:17:36.116Z,79.44
2022-08-17T00:20:03.377Z,79.46
2022-08-17T00:22:34.232Z,79.66
2022-08-17T00:25:03.321Z,80.07
2022-08-17T00:27:30.206Z,79.59
2022-08-17T00:29:57.053Z,79.50
2022-08-17T00:33:13.722Z,79.74
2022-08-17T00:35:13.102Z,79.67
2022-08-17T00:37:40.421Z,79.63
2022-08-17T00:40:09.985Z,79.53
2022-08-17T00:42:37.313Z,79.13
2022-08-17T00:45:06.277Z,79.48
2022-08-17T00:47:33.388Z,79.73
2022-08-17T00:50:00.540Z,79.40
2022-08-17T00:52:34.154Z,79.44
2022-08-17T00:55:01.403Z,79.48
2022-08-17T00:57:41.690Z,79.11
2022-08-17T01:00:21.498Z,78.55
2022-08-17T01:02:48.930Z,79.04
2022-08-17T01:05:20.618Z,79.19
2022-08-17T01:07:51.101Z,78.80
2022-08-17T01:10:59.965Z,78.90
2022-08-17T01:13:10.901Z,79.49
2022-08-17T01:15:39.489Z,79.32
2022-08-17T01:18:08.076Z,78.78
2022-08-17T01:20:47.863Z,79.46
2022-08-17T01:23:20.556Z,78.94
2022-08-17T01:25:54.738Z,78.88
2022-08-17T01:28:33.592Z,78.83
2022-08-17T01:31:09.505Z,78.68
2022-08-17T01:33:36.876Z,79.00
2022-08-17T01:36:07.120Z,79.11
2022-08-17T01:38:35.958Z,79.13
2022-08-17T01:41:07.662Z,78.98
2022-08-17T01:44:02.479Z,79.54
2022-08-17T01:46:34.185Z,78.86
2022-08-17T01:49:01.697Z,78.90
2022-08-17T01:51:32.942Z,78.44
2022-08-17T01:54:08.225Z,78.72
2022-08-17T01:56:37.725Z,78.70
2022-08-17T01:59:05.019Z,78.74
2022-08-17T02:01:34.002Z,79.28
2022-08-17T02:04:01.903Z,78.96
2022-08-17T02:06:52.360Z,79.28
2022-08-17T02:09:25.805Z,79.51
2022-08-17T02:11:54.977Z,79.51
2022-08-17T02:14:24.569Z,79.46
2022-08-17T02:16:52.097Z,79.74
2022-08-17T02:19:19.299Z,80.22
2022-08-17T02:21:48.039Z,80.04
2022-08-17T02:24:58.499Z,80.18
2022-08-17T02:27:07.085Z,79.53
2022-08-17T02:29:34.036Z,80.09
2022-08-17T02:32:02.033Z,79.67
2022-08-17T02:34:29.369Z,79.22
2022-08-17T02:36:56.390Z,79.75
2022-08-17T02:39:23.295Z,79.89
2022-08-17T02:41:50.443Z,79.94
2022-08-17T02:44:39.390Z,79.69
2022-08-17T02:47:04.432Z,79.71
2022-08-17T02:49:31.656Z,79.59
2022-08-17T02:51:58.956Z,79.48
2022-08-17T02:54:40.499Z,79.15
2022-08-17T02:57:10.089Z,79.95
2022-08-17T02:59:42.382Z,79.76
2022-08-17T03:02:13.721Z,79.40
2022-08-17T03:04:40.723Z,79.42
2022-08-17T03:07:07.567Z,79.39
2022-08-17T03:09:34.482Z,78.80
2022-08-17T03:12:09.889Z,79.44
2022-08-17T03:14:41.489Z,79.62
2022-08-17T03:17:10.283Z,79.34
2022-08-17T03:19:37.701Z,78.57
2022-08-17T03:22:37.081Z,78.64
2022-08-17T03:24:57.049Z,79.06
2022-08-17T03:27:23.992Z,78.73
2022-08-17T03:29:50.829Z,78.65
2022-08-17T03:32:17.990Z,78.87
2022-08-17T03:34:44.869Z,79.18
2022-08-17T03:37:12.679Z,78.99
2022-08-17T03:39:39.822Z,78.96
2022-08-17T03:42:31.805Z,79.05
2022-08-17T03:45:00.162Z,78.44
2022-08-17T03:47:45.987Z,78.46
2022-08-17T03:50:32.629Z,79.29
2022-08-17T03:53:19.026Z,78.73
2022-08-17T03:56:04.238Z,79.37
2022-08-17T03:58:31.151Z,79.43
2022-08-17T04:00:58.023Z,79.36
2022-08-17T04:03:24.914Z,78.64
2022-08-17T04:05:51.761Z,78.33
2022-08-17T04:08:18.671Z,78.74
2022-08-17T04:10:45.589Z,77.82
2022-08-17T04:13:13.077Z,78.57
2022-08-17T04:15:40.214Z,78.81
2022-08-17T04:18:07.704Z,77.81
2022-08-17T04:20:38.066Z,78.51
2022-08-17T04:23:10.208Z,78.11
2022-08-17T04:25:40.258Z,78.28
2022-08-17T04:28:14.621Z,78.01
2022-08-17T04:30:45.403Z,78.35
2022-08-17T04:33:24.210Z,78.84
2022-08-17T04:35:57.263Z,78.41
2022-08-17T04:38:26.953Z,79.39
2022-08-17T04:41:12.448Z,79.33
2022-08-17T04:43:40.933Z,79.47
2022-08-17T04:46:10.580Z,78.88
2022-08-17T04:48:40.432Z,78.83
2022-08-17T04:51:32.493Z,79.46
2022-08-17T04:54:02.343Z,79.07
2022-08-17T04:56:30.220Z,78.90
2022-08-17T04:59:00.609Z,78.70
2022-08-17T05:01:30.055Z,79.18
2022-08-17T05:04:02.389Z,78.72
2022-08-17T05:06:49.753Z,79.34
2022-08-17T05:09:17.756Z,79.46
2022-08-17T05:11:45.461Z,79.68
2022-08-17T05:14:12.985Z,79.00
2022-08-17T05:16:39.918Z,79.16
2022-08-17T05:19:06.896Z,79.36
2022-08-17T05:21:33.830Z,79.74
2022-08-17T05:24:00.897Z,79.68
2022-08-17T05:26:32.897Z,79.76
2022-08-17T05:29:03.361Z,80.08
2022-08-17T05:31:30.969Z,79.67
2022-08-17T05:33:58.216Z,79.31
2022-08-17T05:36:42.445Z,79.98
2022-08-17T05:39:16.695Z,80.39
2022-08-17T05:41:48.234Z,80.08
2022-08-17T05:44:15.683Z,80.38
2022-08-17T05:46:46.062Z,79.76
2022-08-17T05:49:13.651Z,79.74
2022-08-17T05:51:49.152Z,79.78
2022-08-17T05:54:42.103Z,79.19
2022-08-17T05:57:39.914Z,79.66
2022-08-17T06:00:30.188Z,79.36
2022-08-17T06:03:05.366Z,79.68
2022-08-17T06:05:45.441Z,79.88
2022-08-17T06:08:22.171Z,79.43
2022-08-17T06:10:58.476Z,79.37
2022-08-17T06:14:00.858Z,79.36
2022-08-17T06:16:36.902Z,80.17
2022-08-17T06:19:20.600Z,80.44
2022-08-17T06:21:51.782Z,80.13
2022-08-17T06:24:24.700Z,80.40
2022-08-17T06:26:52.605Z,80.94
2022-08-17T06:29:23.194Z,80.64
2022-08-17T06:31:51.281Z,80.73
2022-08-17T06:34:19.597Z,81.62
2022-08-17T06:37:24.814Z,81.80
2022-08-17T06:40:00.782Z,82.30
2022-08-17T06:43:05.778Z,82.52
2022-08-17T06:45:49.639Z,81.97
2022-08-17T06:48:26.357Z,81.96
2022-08-17T06:51:00.631Z,82.05
2022-08-17T06:53:32.909Z,81.91
2022-08-17T06:56:10.148Z,82.39
2022-08-17T06:58:40.279Z,82.76
2022-08-17T07:01:23.535Z,82.83
2022-08-17T07:04:13.573Z,82.99
2022-08-17T07:06:46.439Z,83.43
2022-08-17T07:09:23.438Z,83.48
2022-08-17T07:11:54.520Z,83.93
2022-08-17T07:14:45.811Z,84.43
2022-08-17T07:17:15.964Z,84.35
2022-08-17T07:19:46.742Z,84.91
2022-08-17T07:22:30.829Z,84.86
2022-08-17T07:25:20.766Z,85.12
2022-08-17T07:27:51.513Z,84.96
2022-08-17T07:30:24.872Z,84.63
2022-08-17T07:32:58.058Z,84.65
2022-08-17T07:35:37.602Z,84.70
2022-08-17T07:38:30.573Z,84.96
2022-08-17T07:40:58.209Z,85.00
2022-08-17T07:43:40.110Z,84.93
2022-08-17T07:46:39.708Z,84.44
2022-08-17T07:49:09.329Z,84.57
2022-08-17T07:51:45.917Z,84.26
2022-08-17T07:54:14.854Z,84.28
2022-08-17T07:56:46.525Z,84.36
2022-08-17T07:59:15.154Z,83.83
2022-08-17T08:01:44.962Z,83.97
2022-08-17T08:07:26.718Z,83.14
2022-08-17T08:09:59.778Z,83.43
2022-08-17T08:12:37.286Z,83.13
2022-08-17T08:15:15.220Z,83.35
2022-08-17T08:17:54.318Z,83.02
2022-08-17T08:20:51.661Z,82.71
2022-08-17T08:23:25.819Z,82.61
2022-08-17T08:25:56.890Z,83.14
2022-08-17T08:28:46.111Z,82.96
2022-08-17T08:31:24.646Z,82.67
2022-08-17T08:34:06.750Z,82.69
2022-08-17T08:37:17.783Z,82.48
2022-08-17T08:39:52.314Z,82.17
2022-08-17T08:42:33.731Z,82.40
2022-08-17T08:45:24.389Z,82.29
2022-08-17T08:48:22.905Z,81.74
2022-08-17T08:51:14.991Z,81.63
2022-08-17T08:54:03.506Z,81.38
2022-08-17T08:57:19.777Z,80.65
2022-08-17T09:00:05.629Z,80.94
2022-08-17T09:02:47.430Z,80.24
2022-08-17T09:05:52.937Z,80.38
2022-08-17T09:08:32.489Z,79.81
2022-08-17T09:11:22.741Z,79.87
2022-08-17T09:14:07.833Z,79.84
2022-08-17T09:16:57.707Z,79.27
2022-08-17T09:20:27.867Z,79.12
2022-08-17T09:23:13.414Z,78.87
2022-08-17T09:25:50.662Z,79.05
2022-08-17T13:29:45.229Z,62.35
2022-08-17T13:32:41.273Z,62.29
2022-08-17T13:35:35.381Z,62.25
2022-08-17T13:38:17.188Z,61.88
2022-08-17T13:40:50.505Z,61.42
2022-08-17T13:43:41.260Z,61.07
2022-08-17T13:46:12.927Z,60.78
2022-08-17T13:48:40.789Z,61.13
2022-08-17T13:51:18.300Z,62.10
2022-08-17T13:53:45.871Z,63.11
2022-08-17T13:56:37.621Z,64.50
2022-08-17T13:59:09.838Z,65.36
2022-08-17T14:01:53.151Z,65.60
2022-08-17T14:04:32.350Z,66.49
2022-08-17T14:07:24.258Z,67.85
2022-08-17T14:09:58.622Z,68.37
2022-08-17T14:12:28.567Z,70.46
2022-08-17T14:14:57.238Z,71.62
2022-08-17T14:17:26.664Z,72.46
2022-08-17T14:19:54.541Z,71.76
2022-08-17T14:22:28.890Z,71.50
2022-08-17T14:24:58.462Z,69.82
2022-08-17T14:27:28.588Z,68.94
2022-08-17T14:29:58.586Z,69.21
2022-08-17T14:32:37.012Z,69.14
2022-08-17T14:35:06.032Z,70.62
2022-08-17T14:37:35.317Z,69.22
2022-08-17T14:40:07.282Z,68.49
2022-08-17T14:42:36.687Z,69.96
2022-08-17T14:45:06.404Z,71.77
2022-08-17T14:47:53.904Z,73.18
2022-08-17T14:50:23.415Z,74.74
2022-08-17T14:52:51.333Z,74.77
2022-08-17T14:55:19.569Z,75.44
2022-08-17T14:57:47.206Z,76.84
2022-08-17T15:00:17.157Z,76.86
2022-08-17T15:02:55.694Z,77.89
2022-08-17T15:05:26.059Z,78.49
2022-08-17T15:07:54.051Z,78.43
2022-08-17T15:10:22.054Z,79.20
2022-08-17T15:12:49.590Z,79.94
2022-08-17T15:15:18.703Z,80.52
2022-08-17T15:17:47.899Z,80.53
2022-08-17T17:09:01.445Z,95.28
2022-08-17T17:11:51.100Z,95.68
2022-08-17T17:14:28.439Z,95.84
2022-08-17T17:17:04.156Z,95.38
2022-08-17T17:19:52.419Z,95.91
2022-08-17T17:22:30.207Z,95.96
2022-08-17T17:25:48.808Z,96.11
2022-08-17T17:29:00.961Z,96.23
2022-08-17T17:34:16.888Z,97.60
2022-08-17T17:36:49.012Z,97.46
2022-08-17T17:39:20.630Z,97.71
2022-08-17T17:41:49.814Z,97.29
2022-08-17T17:44:21.123Z,97.70
2022-08-17T17:46:55.979Z,97.90
2022-08-17T17:49:23.915Z,97.81
2022-08-17T17:52:10.854Z,97.67
2022-08-17T17:55:18.083Z,97.25
2022-08-17T17:57:59.485Z,96.71
2022-08-17T18:00:38.520Z,97.34
2022-08-17T18:03:17.213Z,96.76
2022-08-17T18:06:10.328Z,97.04
2022-08-17T18:08:59.164Z,97.84
2022-08-17T18:11:52.613Z,98.09
2022-08-17T18:14:46.274Z,98.52
2022-08-17T18:17:14.725Z,98.71
2022-08-17T18:19:41.696Z,98.72
2022-08-17T18:22:18.513Z,99.30
2022-08-17T18:24:48.351Z,99.13
2022-08-17T18:27:29.640Z,99.35
2022-08-17T18:29:58.353Z,99.14
2022-08-17T18:32:28.689Z,99.16
2022-08-17T18:35:02.492Z,99.64
2022-08-17T18:37:36.820Z,99.58
2022-08-17T18:40:19.628Z,99.75
2022-08-17T18:43:06.521Z,99.85
2022-08-17T18:45:47.648Z,99.50
2022-08-17T18:48:30.168Z,99.99
2022-08-17T18:51:26.277Z,99.88
2022-08-17T18:54:28.664Z,99.85
2022-08-17T18:56:56.633Z,99.67
2022-08-17T18:59:44.111Z,99.85
2022-08-17T19:05:13.538Z,100.00
2022-08-17T19:07:46.192Z,99.99
2022-08-17T19:10:31.511Z,100.00
2022-08-17T19:13:01.224Z,100.00
2022-08-17T19:15:33.940Z,99.95
2022-08-17T19:18:22.871Z,100.00
2022-08-17T19:20:59.023Z,100.00
2022-08-17T19:23:28.143Z,99.45
2022-08-17T19:25:58.671Z,99.52
2022-08-17T19:28:25.515Z,99.55
2022-08-17T19:31:03.710Z,99.96
2022-08-17T19:33:31.771Z,99.50
2022-08-17T19:36:06.832Z,99.52
2022-08-17T19:38:51.875Z,100.00
2022-08-17T19:41:30.170Z,99.66
2022-08-17T19:44:09.153Z,99.59
2022-08-17T19:46:50.425Z,99.14
2022-08-17T19:49:53.087Z,98.96
2022-08-17T19:52:31.092Z,99.11
2022-08-17T19:55:05.159Z,98.76
2022-08-17T19:57:46.893Z,98.91
2022-08-17T20:00:18.603Z,98.48
2022-08-17T20:02:55.756Z,98.33
2022-08-17T20:05:29.889Z,97.95
2022-08-17T20:08:09.551Z,97.90
2022-08-17T20:10:54.378Z,98.07
2022-08-17T20:13:44.435Z,98.12
2022-08-17T20:16:17.140Z,97.91
2022-08-17T20:19:01.898Z,98.23
2022-08-17T20:21:37.425Z,97.99
2022-08-17T20:24:21.541Z,98.22
2022-08-17T20:27:01.359Z,97.95
2022-08-17T20:29:37.001Z,97.32
2022-08-17T20:32:04.737Z,97.15
2022-08-17T20:34:38.094Z,97.46
2022-08-17T20:37:25.437Z,97.21
2022-08-17T20:39:52.785Z,97.24
2022-08-17T20:42:22.409Z,97.02
2022-08-17T20:44:57.863Z,97.06
2022-08-17T20:48:00.805Z,96.91
2022-08-17T20:50:44.439Z,96.65
2022-08-17T20:53:15.589Z,97.16
2022-08-17T20:55:52.338Z,97.03
2022-08-17T20:58:23.431Z,96.63
2022-08-17T21:01:13.966Z,96.75
2022-08-17T21:03:51.198Z,97.26
2022-08-17T21:06:21.228Z,97.30
2022-08-17T21:08:54.562Z,97.12
2022-08-17T21:11:57.114Z,97.24
2022-08-17T21:14:41.706Z,97.73
2022-08-17T21:17:42.053Z,97.37
2022-08-17T21:20:32.107Z,97.42
2022-08-17T21:23:18.650Z,97.28
2022-08-17T21:25:58.003Z,97.35
2022-08-17T21:28:34.572Z,97.67
2022-08-17T21:31:09.150Z,98.19
2022-08-17T21:33:40.084Z,98.27
2022-08-17T21:36:11.610Z,97.84
2022-08-17T21:39:03.435Z,97.49
2022-08-17T21:41:34.942Z,97.50
2022-08-17T21:44:12.568Z,97.71
2022-08-17T21:46:46.721Z,97.28
2022-08-17T21:49:17.911Z,97.02
2022-08-17T21:51:50.123Z,97.33
2022-08-17T21:54:34.804Z,97.28
2022-08-17T21:57:07.376Z,97.75
2022-08-17T21:59:37.513Z,97.48
2022-08-17T22:02:07.007Z,97.36
2022-08-17T22:04:39.496Z,97.20
2022-08-17T22:07:10.642Z,97.10
2022-08-17T22:09:44.381Z,96.99
2022-08-17T22:12:19.723Z,97.08
2022-08-17T22:14:56.914Z,97.69
2022-08-17T22:17:26.888Z,97.16
2022-08-17T22:20:01.899Z,97.03
2022-08-17T22:22:58.315Z,97.19
2022-08-17T22:25:26.944Z,97.46
2022-08-17T22:28:05.167Z,96.87
2022-08-17T22:30:40.258Z,96.99
2022-08-17T22:33:37.930Z,97.21
2022-08-17T22:36:32.698Z,97.50
2022-08-17T22:39:02.241Z,97.81
2022-08-17T22:41:49.541Z,97.62
2022-08-17T22:44:24.508Z,97.41
2022-08-17T22:47:00.151Z,97.30
2022-08-17T22:53:36.452Z,97.05
2022-08-17T22:56:22.594Z,97.08
2022-08-17T22:59:12.753Z,97.28
2022-08-17T23:01:40.890Z,97.19
2022-08-17T23:04:32.686Z,97.38
2022-08-17T23:06:59.789Z,97.77
2022-08-17T23:09:26.746Z,97.66
2022-08-17T23:11:58.870Z,98.17
2022-08-17T23:14:31.820Z,98.16
2022-08-17T23:17:02.202Z,98.19
2022-08-17T23:19:31.891Z,98.70
2022-08-17T23:21:59.897Z,98.62
2022-08-17T23:24:29.808Z,98.71
2022-08-17T23:26:58.339Z,98.91
2022-08-17T23:29:29.013Z,99.39
2022-08-17T23:31:58.108Z,99.13
2022-08-17T23:34:25.761Z,99.17
2022-08-17T23:36:53.329Z,99.12
2022-08-17T23:39:27.443Z,99.26
2022-08-17T23:41:55.494Z,99.42
2022-08-17T23:44:25.220Z,99.81
2022-08-17T23:46:52.976Z,99.67
2022-08-17T23:49:20.429Z,99.66
2022-08-17T23:51:48.464Z,100.00
2022-08-17T23:54:33.799Z,100.00
2022-08-17T23:57:01.903Z,100.00
2022-08-17T23:59:29.373Z,100.00
